Berlin, South Carolina
Current Conditions -  °F | °C
As of 12:55 AM on Thursday 27 Nov 2014 (Local Time) from KAIK Reporting Station
Overcast Overcast  
Wind Chill: 40°   Ceiling: 9500
Heat Index: 43°   Visibility: 10mi
Dew Point: 32°   Wind: 5mph
Humidity: 66%   Direction: 220°SW
Pressure: 30.11"   Gusts: NA
Location:  33.5901°N, 81.3327°W
Report Text: KAIK 270555Z AUTO 22004KT 10SM OVC095 06/00 A3011 RMK AO2 PNO
Loading
Personal Weather Stations






























Interactive Weather Map New forecast layout! Learn more

10-Day Weather Forecast

Advertisements
Track Severe Weather on mobile